createdAt,value
2022-08-30T06:30:43.816Z,79.10
2022-08-30T06:35:58.467Z,78.80
2022-08-30T06:41:07.152Z,76.20
2022-08-30T06:46:14.312Z,75.00
2022-08-30T06:51:21.191Z,72.80
2022-08-30T06:56:27.408Z,72.10
2022-08-30T07:01:32.976Z,71.60
2022-08-30T07:06:36.583Z,71.40
2022-08-30T07:11:40.522Z,70.80
2022-08-30T07:16:46.554Z,70.60
2022-08-30T07:21:54.354Z,70.60
2022-08-30T07:26:57.920Z,70.20
2022-08-30T07:32:02.968Z,70.70
2022-08-30T07:37:06.410Z,70.60
2022-08-30T07:42:09.777Z,70.40
2022-08-30T07:47:14.445Z,70.00
2022-08-30T07:52:18.166Z,69.90
2022-08-30T07:57:21.687Z,69.80
2022-08-30T08:02:26.501Z,69.90
2022-08-30T08:07:31.236Z,69.70
2022-08-30T08:12:34.962Z,69.70
2022-08-30T08:17:39.789Z,69.60
2022-08-30T08:22:43.151Z,69.40
2022-08-30T08:27:48.855Z,69.00
2022-08-30T08:32:54.164Z,68.40
2022-08-30T08:37:57.461Z,67.80
2022-08-30T08:43:06.264Z,67.90
2022-08-30T08:48:15.945Z,67.90
2022-08-30T08:53:51.722Z,66.80
2022-08-30T08:58:57.444Z,66.70
2022-08-30T09:04:09.168Z,65.90
2022-08-30T09:09:13.319Z,65.00
2022-08-30T09:14:22.343Z,64.20
2022-08-30T09:19:40.160Z,64.00
2022-08-30T09:24:46.507Z,64.10
2022-08-30T09:29:55.658Z,64.30
2022-08-30T09:35:01.160Z,63.90
2022-08-30T09:40:13.378Z,63.30
2022-08-30T09:45:21.847Z,63.60
2022-08-30T09:50:34.313Z,63.30
2022-08-30T09:55:55.821Z,62.60
2022-08-30T10:01:06.684Z,62.10
2022-08-30T10:06:23.089Z,61.50
2022-08-30T10:11:33.523Z,60.60
2022-08-30T10:16:54.335Z,60.20
2022-08-30T10:22:05.017Z,60.90
2022-08-30T10:27:14.691Z,59.00
2022-08-30T10:32:25.258Z,57.70
2022-08-30T10:37:33.096Z,57.20
2022-08-30T10:42:40.073Z,58.10
2022-08-30T10:47:47.958Z,59.00
2022-08-30T10:53:00.527Z,57.30
2022-08-30T10:58:06.579Z,57.00
2022-08-30T11:03:48.526Z,56.50
2022-08-30T11:09:26.771Z,55.70
2022-08-30T11:14:31.445Z,56.40
2022-08-30T11:19:40.845Z,55.30
2022-08-30T11:25:02.955Z,54.10
2022-08-30T11:30:52.794Z,53.50
2022-08-30T11:35:56.687Z,53.20
2022-08-30T11:41:10.586Z,52.80
2022-08-30T11:46:24.371Z,52.00
2022-08-30T11:52:08.193Z,52.00
2022-08-30T11:57:21.834Z,52.20
2022-08-30T12:02:52.138Z,51.80
2022-08-30T12:08:01.592Z,50.80
2022-08-30T12:13:06.681Z,49.20
2022-08-30T12:18:30.232Z,49.70
2022-08-30T12:23:44.432Z,50.20
2022-08-30T12:28:52.134Z,50.60
2022-08-30T12:34:00.739Z,50.70
2022-08-30T12:39:11.273Z,50.60
2022-08-30T12:44:20.019Z,48.20
2022-08-30T12:49:27.131Z,48.10
2022-08-30T12:54:32.185Z,47.50
2022-08-30T12:59:56.714Z,44.90
2022-08-30T13:05:34.547Z,42.00
2022-08-30T13:10:38.281Z,41.30
2022-08-30T13:15:43.880Z,42.40
2022-08-30T13:20:48.926Z,42.80
2022-08-30T13:25:52.387Z,43.00
2022-08-30T13:30:55.884Z,42.50
2022-08-30T13:36:00.935Z,41.60
2022-08-30T13:41:04.285Z,42.10
2022-08-30T13:46:09.524Z,42.00
2022-08-30T13:51:15.266Z,41.20
2022-08-30T13:56:18.895Z,40.60
2022-08-30T14:01:24.867Z,38.10
2022-08-30T14:06:33.907Z,37.90
2022-08-30T14:11:38.034Z,37.50
2022-08-30T14:16:43.670Z,38.30
2022-08-30T14:21:49.403Z,38.00
2022-08-30T14:26:53.309Z,38.50
2022-08-30T14:31:56.908Z,36.60
2022-08-30T14:37:06.716Z,33.50
2022-08-30T14:42:12.660Z,33.20
2022-08-30T14:47:25.648Z,33.30
2022-08-30T14:52:34.480Z,35.20
2022-08-30T14:57:39.571Z,34.00
2022-08-30T15:02:43.025Z,31.50
2022-08-30T15:07:50.931Z,30.90
2022-08-30T15:12:54.571Z,29.50
2022-08-30T15:17:58.322Z,29.40
2022-08-30T15:23:03.140Z,29.00
2022-08-30T15:28:08.674Z,29.00
2022-08-30T15:33:13.863Z,29.00
2022-08-30T15:38:19.502Z,28.90
2022-08-30T15:43:25.552Z,28.90
2022-08-30T15:48:29.029Z,29.70
2022-08-30T15:53:36.142Z,31.10
2022-08-30T15:58:39.622Z,32.10
2022-08-30T16:03:44.862Z,34.70
2022-08-30T16:08:51.427Z,33.20
2022-08-30T16:13:59.117Z,32.80
2022-08-30T16:19:02.716Z,32.70
2022-08-30T16:24:13.446Z,32.80
2022-08-30T16:29:17.386Z,32.60
2022-08-30T16:34:22.378Z,32.80
2022-08-30T16:39:27.238Z,32.00
2022-08-30T16:44:30.910Z,31.40
2022-08-30T16:49:34.443Z,31.70
2022-08-30T16:54:39.221Z,31.80
2022-08-30T16:59:44.466Z,32.20
2022-08-30T17:04:52.783Z,32.60
2022-08-30T17:09:58.564Z,33.40
2022-08-30T17:15:02.131Z,34.20
2022-08-30T17:20:10.614Z,34.80
2022-08-30T17:25:15.539Z,35.50
2022-08-30T17:30:19.341Z,35.60
2022-08-30T17:35:23.809Z,36.30
2022-08-30T17:40:29.916Z,36.80
2022-08-30T17:45:33.564Z,37.60
2022-08-30T17:50:37.587Z,38.40
2022-08-30T17:55:48.304Z,38.60
2022-08-30T18:00:54.132Z,39.60
2022-08-30T18:05:57.815Z,40.30
2022-08-30T18:11:04.112Z,40.90
2022-08-30T18:16:10.276Z,41.50
2022-08-30T18:21:18.263Z,41.80
2022-08-30T18:26:27.939Z,42.20
2022-08-30T18:31:32.130Z,43.40
2022-08-30T18:36:36.186Z,43.00
2022-08-30T18:41:43.143Z,43.10
2022-08-30T18:46:55.919Z,44.10
2022-08-30T18:52:00.534Z,42.80
2022-08-30T18:57:06.105Z,43.80
2022-08-30T19:02:14.601Z,45.40
2022-08-30T19:07:20.355Z,44.30
2022-08-30T19:12:26.078Z,44.40
2022-08-30T19:17:31.123Z,44.10
2022-08-30T19:23:05.845Z,44.20
2022-08-30T19:27:59.787Z,45.90
2022-08-30T19:33:03.717Z,47.10
2022-08-30T19:38:09.482Z,47.00
2022-08-30T19:43:14.880Z,47.10
2022-08-30T19:48:22.618Z,46.70
2022-08-30T19:53:26.023Z,47.80
2022-08-30T19:58:31.257Z,47.50
2022-08-30T20:03:34.954Z,49.30
2022-08-30T20:08:38.550Z,49.00
2022-08-30T20:13:45.438Z,49.30
2022-08-30T20:18:49.639Z,50.20
2022-08-30T20:23:52.941Z,50.70
2022-08-30T20:28:59.925Z,50.10
2022-08-30T20:34:04.651Z,50.10
2022-08-30T20:39:09.836Z,50.70
2022-08-30T20:44:15.106Z,51.50
2022-08-30T20:49:19.614Z,51.90
2022-08-30T20:54:23.056Z,52.00
2022-08-30T20:59:28.716Z,52.20
2022-08-30T21:04:32.595Z,52.10
2022-08-30T21:09:37.066Z,52.60
2022-08-30T21:14:42.109Z,53.20
2022-08-30T21:19:46.271Z,52.90
2022-08-30T21:24:49.653Z,52.50
2022-08-30T21:29:54.384Z,52.20
2022-08-30T21:35:15.663Z,52.60
2022-08-30T21:40:19.262Z,52.60
2022-08-30T21:45:23.989Z,52.30
2022-08-30T21:50:27.538Z,52.70
2022-08-30T21:55:30.893Z,52.70
2022-08-30T22:00:35.687Z,52.80
2022-08-30T22:05:39.042Z,54.40
2022-08-30T22:10:45.032Z,54.80
2022-08-30T22:15:49.962Z,54.60
2022-08-30T22:20:53.357Z,56.40
2022-08-30T22:25:57.149Z,56.20
2022-08-30T22:31:04.235Z,55.70
2022-08-30T22:36:09.966Z,56.00
2022-08-30T22:41:15.502Z,55.80
2022-08-30T22:46:21.604Z,56.60
2022-08-30T22:51:33.765Z,55.70
2022-08-30T22:56:38.746Z,56.70
2022-08-30T23:01:44.091Z,57.20
2022-08-30T23:06:49.599Z,56.20
2022-08-30T23:11:53.575Z,56.30
2022-08-30T23:16:58.611Z,57.40
2022-08-30T23:22:02.662Z,56.60
2022-08-30T23:27:23.588Z,57.20
2022-08-30T23:32:45.810Z,57.20
2022-08-30T23:38:07.412Z,57.10
2022-08-30T23:43:28.782Z,56.70
2022-08-30T23:48:52.101Z,56.60
2022-08-30T23:54:13.459Z,56.50
2022-08-30T23:59:34.491Z,57.40
